sensor_id;sensor_type;location;lat;lon;timestamp;pressure;altitude;pressure_sealevel;temperature;humidity
64211;BME280;50528;48.514;14.394;2023-05-03T00:00:11;94454.44;;;10.44;78.80
64211;BME280;50528;48.514;14.394;2023-05-03T00:01:08;94457.36;;;10.42;78.86
64211;BME280;50528;48.514;14.394;2023-05-03T00:01:40;94452.94;;;10.41;78.87
64211;BME280;50528;48.514;14.394;2023-05-03T00:02:11;94454.32;;;10.42;78.97
64211;BME280;50528;48.514;14.394;2023-05-03T00:02:44;94451.06;;;10.43;78.90
64211;BME280;50528;48.514;14.394;2023-05-03T00:03:17;94455.55;;;10.43;78.94
64211;BME280;50528;48.514;14.394;2023-05-03T00:03:53;94454.35;;;10.44;79.04
64211;BME280;50528;48.514;14.394;2023-05-03T00:04:25;94457.54;;;10.45;78.96
64211;BME280;50528;48.514;14.394;2023-05-03T00:04:57;94457.23;;;10.44;78.86
64211;BME280;50528;48.514;14.394;2023-05-03T00:05:30;94456.77;;;10.44;78.94
64211;BME280;50528;48.514;14.394;2023-05-03T00:06:12;94457.95;;;10.45;78.99
64211;BME280;50528;48.514;14.394;2023-05-03T00:06:44;94455.56;;;10.44;78.90
64211;BME280;50528;48.514;14.394;2023-05-03T00:07:16;94457.70;;;10.44;78.78
64211;BME280;50528;48.514;14.394;2023-05-03T00:07:49;94457.30;;;10.44;78.82
64211;BME280;50528;48.514;14.394;2023-05-03T00:08:21;94458.15;;;10.45;78.78
64211;BME280;50528;48.514;14.394;2023-05-03T00:08:53;94458.33;;;10.43;78.69
64211;BME280;50528;48.514;14.394;2023-05-03T00:09:24;94460.50;;;10.44;78.62
64211;BME280;50528;48.514;14.394;2023-05-03T00:09:57;94457.18;;;10.44;78.76
64211;BME280;50528;48.514;14.394;2023-05-03T00:10:34;94453.52;;;10.42;78.65
64211;BME280;50528;48.514;14.394;2023-05-03T00:11:09;94456.38;;;10.42;78.69
64211;BME280;50528;48.514;14.394;2023-05-03T00:11:43;94453.71;;;10.40;78.75
64211;BME280;50528;48.514;14.394;2023-05-03T00:12:15;94455.59;;;10.42;78.68
64211;BME280;50528;48.514;14.394;2023-05-03T00:12:47;94455.38;;;10.42;78.66
64211;BME280;50528;48.514;14.394;2023-05-03T00:13:19;94453.54;;;10.43;78.62
64211;BME280;50528;48.514;14.394;2023-05-03T00:13:52;94453.88;;;10.44;78.71
64211;BME280;50528;48.514;14.394;2023-05-03T00:14:24;94451.02;;;10.43;78.67
64211;BME280;50528;48.514;14.394;2023-05-03T00:14:56;94454.42;;;10.45;78.79
64211;BME280;50528;48.514;14.394;2023-05-03T00:15:28;94455.34;;;10.46;78.78
64211;BME280;50528;48.514;14.394;2023-05-03T00:16:00;94452.42;;;10.46;78.83
64211;BME280;50528;48.514;14.394;2023-05-03T00:16:33;94451.45;;;10.46;78.79
64211;BME280;50528;48.514;14.394;2023-05-03T00:17:05;94452.62;;;10.46;78.79
64211;BME280;50528;48.514;14.394;2023-05-03T00:17:39;94450.80;;;10.47;78.78
64211;BME280;50528;48.514;14.394;2023-05-03T00:18:11;94449.17;;;10.47;78.88
64211;BME280;50528;48.514;14.394;2023-05-03T00:18:43;94448.67;;;10.46;78.89
64211;BME280;50528;48.514;14.394;2023-05-03T00:19:16;94450.06;;;10.47;78.86
64211;BME280;50528;48.514;14.394;2023-05-03T00:20:03;94449.67;;;10.46;78.80
64211;BME280;50528;48.514;14.394;2023-05-03T00:20:35;94449.86;;;10.45;78.89
64211;BME280;50528;48.514;14.394;2023-05-03T00:21:08;94449.56;;;10.46;78.88
64211;BME280;50528;48.514;14.394;2023-05-03T00:21:40;94452.66;;;10.46;78.81
64211;BME280;50528;48.514;14.394;2023-05-03T00:22:12;94449.70;;;10.47;78.85
64211;BME280;50528;48.514;14.394;2023-05-03T00:22:44;94452.20;;;10.48;78.95
64211;BME280;50528;48.514;14.394;2023-05-03T00:23:16;94452.94;;;10.49;78.97
64211;BME280;50528;48.514;14.394;2023-05-03T00:23:47;94449.00;;;10.49;78.87
64211;BME280;50528;48.514;14.394;2023-05-03T00:24:19;94453.36;;;10.49;78.85
64211;BME280;50528;48.514;14.394;2023-05-03T00:24:51;94454.77;;;10.49;78.87
64211;BME280;50528;48.514;14.394;2023-05-03T00:25:23;94454.89;;;10.50;78.91
64211;BME280;50528;48.514;14.394;2023-05-03T00:25:57;94454.38;;;10.50;78.80
64211;BME280;50528;48.514;14.394;2023-05-03T00:26:29;94455.77;;;10.49;78.91
64211;BME280;50528;48.514;14.394;2023-05-03T00:27:05;94451.11;;;10.47;78.81
64211;BME280;50528;48.514;14.394;2023-05-03T00:27:37;94453.26;;;10.49;78.90
64211;BME280;50528;48.514;14.394;2023-05-03T00:28:09;94454.31;;;10.49;78.83
64211;BME280;50528;48.514;14.394;2023-05-03T00:28:41;94452.05;;;10.50;78.82
64211;BME280;50528;48.514;14.394;2023-05-03T00:29:13;94449.71;;;10.48;78.78
64211;BME280;50528;48.514;14.394;2023-05-03T00:29:45;94450.42;;;10.49;78.72
64211;BME280;50528;48.514;14.394;2023-05-03T00:30:17;94453.91;;;10.50;78.74
64211;BME280;50528;48.514;14.394;2023-05-03T00:30:50;94451.86;;;10.52;78.61
64211;BME280;50528;48.514;14.394;2023-05-03T00:31:23;94453.21;;;10.52;78.43
64211;BME280;50528;48.514;14.394;2023-05-03T00:31:55;94448.11;;;10.45;78.58
64211;BME280;50528;48.514;14.394;2023-05-03T00:32:27;94453.73;;;10.41;78.61
64211;BME280;50528;48.514;14.394;2023-05-03T00:32:59;94448.66;;;10.38;78.80
64211;BME280;50528;48.514;14.394;2023-05-03T00:33:31;94448.94;;;10.32;78.86
64211;BME280;50528;48.514;14.394;2023-05-03T00:34:03;94446.86;;;10.30;79.07
64211;BME280;50528;48.514;14.394;2023-05-03T00:34:36;94447.39;;;10.25;79.17
64211;BME280;50528;48.514;14.394;2023-05-03T00:35:08;94448.86;;;10.22;79.25
64211;BME280;50528;48.514;14.394;2023-05-03T00:35:40;94442.52;;;10.17;79.24
64211;BME280;50528;48.514;14.394;2023-05-03T00:36:13;94445.59;;;10.12;79.34
64211;BME280;50528;48.514;14.394;2023-05-03T00:36:45;94442.18;;;10.12;79.57
64211;BME280;50528;48.514;14.394;2023-05-03T00:37:17;94443.73;;;10.13;79.75
64211;BME280;50528;48.514;14.394;2023-05-03T00:37:49;94440.67;;;10.13;79.67
64211;BME280;50528;48.514;14.394;2023-05-03T00:38:21;94441.65;;;10.08;79.74
64211;BME280;50528;48.514;14.394;2023-05-03T00:38:53;94439.77;;;10.03;79.79
64211;BME280;50528;48.514;14.394;2023-05-03T00:39:28;94437.63;;;10.02;79.89
64211;BME280;50528;48.514;14.394;2023-05-03T00:40:01;94441.40;;;10.01;80.03
64211;BME280;50528;48.514;14.394;2023-05-03T00:40:33;94436.45;;;10.00;80.03
64211;BME280;50528;48.514;14.394;2023-05-03T00:41:06;94440.65;;;10.00;80.17
64211;BME280;50528;48.514;14.394;2023-05-03T00:41:38;94437.89;;;10.02;80.22
64211;BME280;50528;48.514;14.394;2023-05-03T00:42:10;94439.89;;;10.02;80.17
64211;BME280;50528;48.514;14.394;2023-05-03T00:42:43;94439.80;;;10.01;80.21
64211;BME280;50528;48.514;14.394;2023-05-03T00:43:15;94439.26;;;10.02;80.28
64211;BME280;50528;48.514;14.394;2023-05-03T00:43:47;94439.29;;;10.03;80.28
64211;BME280;50528;48.514;14.394;2023-05-03T00:44:18;94440.36;;;10.04;80.23
64211;BME280;50528;48.514;14.394;2023-05-03T00:44:50;94438.76;;;10.05;80.41
64211;BME280;50528;48.514;14.394;2023-05-03T00:45:25;94438.16;;;10.06;80.40
64211;BME280;50528;48.514;14.394;2023-05-03T00:45:58;94441.23;;;10.08;80.45
64211;BME280;50528;48.514;14.394;2023-05-03T00:46:44;94439.97;;;10.08;80.34
64211;BME280;50528;48.514;14.394;2023-05-03T00:47:16;94436.41;;;10.08;80.43
64211;BME280;50528;48.514;14.394;2023-05-03T00:47:48;94434.20;;;10.10;80.39
64211;BME280;50528;48.514;14.394;2023-05-03T00:48:20;94437.88;;;10.12;80.43
64211;BME280;50528;48.514;14.394;2023-05-03T00:48:53;94435.30;;;10.12;80.34
64211;BME280;50528;48.514;14.394;2023-05-03T00:49:25;94439.05;;;10.14;80.38
64211;BME280;50528;48.514;14.394;2023-05-03T00:49:59;94442.60;;;10.15;80.52
64211;BME280;50528;48.514;14.394;2023-05-03T00:50:31;94438.35;;;10.15;80.39
64211;BME280;50528;48.514;14.394;2023-05-03T00:51:04;94441.14;;;10.15;80.46
64211;BME280;50528;48.514;14.394;2023-05-03T00:51:37;94440.05;;;10.15;80.34
64211;BME280;50528;48.514;14.394;2023-05-03T00:52:10;94440.94;;;10.15;80.36
64211;BME280;50528;48.514;14.394;2023-05-03T00:52:42;94439.21;;;10.17;80.39
64211;BME280;50528;48.514;14.394;2023-05-03T00:53:15;94440.52;;;10.15;80.39
64211;BME280;50528;48.514;14.394;2023-05-03T00:53:47;94444.42;;;10.17;80.33
64211;BME280;50528;48.514;14.394;2023-05-03T00:54:20;94444.42;;;10.17;80.39
64211;BME280;50528;48.514;14.394;2023-05-03T00:54:52;94445.57;;;10.19;80.40
64211;BME280;50528;48.514;14.394;2023-05-03T00:55:27;94441.67;;;10.19;80.33
64211;BME280;50528;48.514;14.394;2023-05-03T00:56:00;94441.20;;;10.19;80.25
64211;BME280;50528;48.514;14.394;2023-05-03T00:56:32;94444.83;;;10.19;80.25
64211;BME280;50528;48.514;14.394;2023-05-03T00:57:19;94438.77;;;10.16;80.26
64211;BME280;50528;48.514;14.394;2023-05-03T00:57:53;94442.82;;;10.16;80.26
64211;BME280;50528;48.514;14.394;2023-05-03T00:58:25;94445.25;;;10.18;80.23
64211;BME280;50528;48.514;14.394;2023-05-03T00:58:58;94443.09;;;10.19;80.37
64211;BME280;50528;48.514;14.394;2023-05-03T00:59:31;94443.01;;;10.20;80.40
64211;BME280;50528;48.514;14.394;2023-05-03T01:00:03;94440.80;;;10.19;80.34
64211;BME280;50528;48.514;14.394;2023-05-03T01:00:36;94441.34;;;10.19;80.33
64211;BME280;50528;48.514;14.394;2023-05-03T01:01:08;94440.80;;;10.20;80.34
64211;BME280;50528;48.514;14.394;2023-05-03T01:01:40;94444.39;;;10.21;80.38
64211;BME280;50528;48.514;14.394;2023-05-03T01:02:13;94442.77;;;10.21;80.27
64211;BME280;50528;48.514;14.394;2023-05-03T01:02:45;94443.66;;;10.21;80.33
64211;BME280;50528;48.514;14.394;2023-05-03T01:03:17;94443.73;;;10.21;80.38
64211;BME280;50528;48.514;14.394;2023-05-03T01:03:49;94444.70;;;10.22;80.37
64211;BME280;50528;48.514;14.394;2023-05-03T01:04:22;94440.61;;;10.22;80.41
64211;BME280;50528;48.514;14.394;2023-05-03T01:04:54;94441.77;;;10.23;80.37
64211;BME280;50528;48.514;14.394;2023-05-03T01:05:32;94441.37;;;10.23;80.36
64211;BME280;50528;48.514;14.394;2023-05-03T01:06:17;94441.08;;;10.23;80.40
64211;BME280;50528;48.514;14.394;2023-05-03T01:08:09;94440.43;;;10.20;80.35
64211;BME280;50528;48.514;14.394;2023-05-03T01:09:01;94437.56;;;10.15;80.41
64211;BME280;50528;48.514;14.394;2023-05-03T01:09:48;94441.80;;;10.14;80.38
64211;BME280;50528;48.514;14.394;2023-05-03T01:10:41;94439.16;;;10.11;80.42
64211;BME280;50528;48.514;14.394;2023-05-03T01:11:24;94440.45;;;10.12;80.36
64211;BME280;50528;48.514;14.394;2023-05-03T01:12:25;94443.00;;;10.11;80.54
64211;BME280;50528;48.514;14.394;2023-05-03T01:13:09;94442.88;;;10.08;80.48
64211;BME280;50528;48.514;14.394;2023-05-03T01:14:14;94443.38;;;10.06;80.53
64211;BME280;50528;48.514;14.394;2023-05-03T01:15:06;94442.88;;;10.04;80.65
64211;BME280;50528;48.514;14.394;2023-05-03T01:16:46;94440.70;;;10.00;80.65
64211;BME280;50528;48.514;14.394;2023-05-03T01:17:22;94443.10;;;9.98;80.75
64211;BME280;50528;48.514;14.394;2023-05-03T01:18:06;94443.66;;;9.94;80.65
64211;BME280;50528;48.514;14.394;2023-05-03T01:18:42;94440.88;;;9.94;80.91
64211;BME280;50528;48.514;14.394;2023-05-03T01:19:31;94446.05;;;9.95;80.97
64211;BME280;50528;48.514;14.394;2023-05-03T01:20:07;94446.75;;;9.93;80.94
64211;BME280;50528;48.514;14.394;2023-05-03T01:20:45;94447.88;;;9.93;80.94
64211;BME280;50528;48.514;14.394;2023-05-03T01:21:18;94445.02;;;9.92;81.15
64211;BME280;50528;48.514;14.394;2023-05-03T01:22:02;94444.34;;;9.92;81.20
64211;BME280;50528;48.514;14.394;2023-05-03T01:22:49;94445.21;;;9.93;81.44
64211;BME280;50528;48.514;14.394;2023-05-03T01:24:17;94447.49;;;9.89;81.33
64211;BME280;50528;48.514;14.394;2023-05-03T01:25:07;94450.24;;;9.91;81.38
64211;BME280;50528;48.514;14.394;2023-05-03T01:25:39;94447.76;;;9.90;81.38
64211;BME280;50528;48.514;14.394;2023-05-03T01:26:18;94444.72;;;9.90;81.39
64211;BME280;50528;48.514;14.394;2023-05-03T01:26:51;94450.55;;;9.92;81.50
64211;BME280;50528;48.514;14.394;2023-05-03T01:27:23;94445.02;;;9.92;81.41
64211;BME280;50528;48.514;14.394;2023-05-03T01:27:55;94448.35;;;9.94;81.52
64211;BME280;50528;48.514;14.394;2023-05-03T01:28:27;94445.53;;;9.96;81.50
64211;BME280;50528;48.514;14.394;2023-05-03T01:28:59;94449.42;;;9.96;81.57
64211;BME280;50528;48.514;14.394;2023-05-03T01:29:31;94450.89;;;9.98;81.54
64211;BME280;50528;48.514;14.394;2023-05-03T01:30:05;94447.66;;;9.99;81.56
64211;BME280;50528;48.514;14.394;2023-05-03T01:30:38;94449.70;;;10.00;81.58
64211;BME280;50528;48.514;14.394;2023-05-03T01:31:20;94448.60;;;10.02;81.54
64211;BME280;50528;48.514;14.394;2023-05-03T01:31:59;94449.35;;;10.02;81.47
64211;BME280;50528;48.514;14.394;2023-05-03T01:33:47;94448.25;;;10.00;81.43
64211;BME280;50528;48.514;14.394;2023-05-03T01:35:03;94442.54;;;9.98;81.48
64211;BME280;50528;48.514;14.394;2023-05-03T01:35:46;94439.42;;;9.97;81.49
64211;BME280;50528;48.514;14.394;2023-05-03T01:36:28;94444.23;;;10.01;81.36
64211;BME280;50528;48.514;14.394;2023-05-03T01:37:07;94448.60;;;10.01;81.46
64211;BME280;50528;48.514;14.394;2023-05-03T01:37:42;94445.98;;;10.01;81.36
64211;BME280;50528;48.514;14.394;2023-05-03T01:38:16;94445.03;;;10.01;81.44
64211;BME280;50528;48.514;14.394;2023-05-03T01:38:50;94446.48;;;10.03;81.43
64211;BME280;50528;48.514;14.394;2023-05-03T01:39:34;94445.83;;;10.04;81.43
64211;BME280;50528;48.514;14.394;2023-05-03T01:40:09;94445.91;;;10.03;81.42
64211;BME280;50528;48.514;14.394;2023-05-03T01:40:51;94440.96;;;10.00;81.33
64211;BME280;50528;48.514;14.394;2023-05-03T01:41:25;94446.20;;;10.02;81.35
64211;BME280;50528;48.514;14.394;2023-05-03T01:42:00;94444.70;;;10.04;81.30
64211;BME280;50528;48.514;14.394;2023-05-03T01:42:37;94443.83;;;10.02;81.27
64211;BME280;50528;48.514;14.394;2023-05-03T01:43:12;94445.18;;;10.04;81.31
64211;BME280;50528;48.514;14.394;2023-05-03T01:43:48;94442.91;;;10.05;81.24
64211;BME280;50528;48.514;14.394;2023-05-03T01:44:24;94448.06;;;10.03;81.32
64211;BME280;50528;48.514;14.394;2023-05-03T01:44:58;94445.52;;;10.02;81.32
64211;BME280;50528;48.514;14.394;2023-05-03T01:45:32;94445.46;;;10.02;81.26
64211;BME280;50528;48.514;14.394;2023-05-03T01:46:07;94448.52;;;10.02;81.38
64211;BME280;50528;48.514;14.394;2023-05-03T01:46:42;94446.69;;;10.03;81.33
64211;BME280;50528;48.514;14.394;2023-05-03T01:47:16;94445.17;;;10.03;81.31
64211;BME280;50528;48.514;14.394;2023-05-03T01:47:49;94443.23;;;10.03;81.32
64211;BME280;50528;48.514;14.394;2023-05-03T01:48:23;94446.73;;;10.03;81.28
64211;BME280;50528;48.514;14.394;2023-05-03T01:48:56;94448.52;;;10.02;81.32
64211;BME280;50528;48.514;14.394;2023-05-03T01:50:42;94445.42;;;9.99;81.27
64211;BME280;50528;48.514;14.394;2023-05-03T01:51:16;94447.98;;;9.94;81.26
64211;BME280;50528;48.514;14.394;2023-05-03T01:51:49;94445.92;;;9.94;81.23
64211;BME280;50528;48.514;14.394;2023-05-03T01:52:23;94446.67;;;9.95;81.27
64211;BME280;50528;48.514;14.394;2023-05-03T01:52:56;94447.09;;;9.95;81.26
64211;BME280;50528;48.514;14.394;2023-05-03T01:53:30;94447.95;;;9.96;81.36
64211;BME280;50528;48.514;14.394;2023-05-03T01:54:03;94446.66;;;9.97;81.31
64211;BME280;50528;48.514;14.394;2023-05-03T01:54:37;94442.36;;;9.97;81.46
64211;BME280;50528;48.514;14.394;2023-05-03T01:55:10;94448.21;;;10.00;81.40
64211;BME280;50528;48.514;14.394;2023-05-03T01:55:43;94444.66;;;9.99;81.42
64211;BME280;50528;48.514;14.394;2023-05-03T01:56:17;94447.02;;;9.99;81.34
64211;BME280;50528;48.514;14.394;2023-05-03T01:56:50;94445.55;;;9.99;81.40
64211;BME280;50528;48.514;14.394;2023-05-03T01:57:23;94444.73;;;10.00;81.37
64211;BME280;50528;48.514;14.394;2023-05-03T01:57:57;94444.33;;;10.00;81.42
64211;BME280;50528;48.514;14.394;2023-05-03T01:58:30;94444.23;;;10.01;81.43
64211;BME280;50528;48.514;14.394;2023-05-03T01:59:04;94444.52;;;10.01;81.29
64211;BME280;50528;48.514;14.394;2023-05-03T01:59:37;94446.24;;;10.02;81.36
64211;BME280;50528;48.514;14.394;2023-05-03T02:00:11;94444.86;;;10.03;81.48
64211;BME280;50528;48.514;14.394;2023-05-03T02:00:44;94444.50;;;10.03;81.45
64211;BME280;50528;48.514;14.394;2023-05-03T02:01:18;94444.38;;;10.03;81.40
64211;BME280;50528;48.514;14.394;2023-05-03T02:01:51;94443.02;;;10.03;81.39
64211;BME280;50528;48.514;14.394;2023-05-03T02:02:25;94444.83;;;10.06;81.33
64211;BME280;50528;48.514;14.394;2023-05-03T02:02:58;94440.52;;;10.03;81.32
64211;BME280;50528;48.514;14.394;2023-05-03T02:03:31;94447.43;;;10.05;81.42
64211;BME280;50528;48.514;14.394;2023-05-03T02:04:04;94448.36;;;10.05;81.46
64211;BME280;50528;48.514;14.394;2023-05-03T02:04:38;94445.58;;;10.04;81.21
64211;BME280;50528;48.514;14.394;2023-05-03T02:05:11;94445.05;;;10.04;81.29
64211;BME280;50528;48.514;14.394;2023-05-03T02:05:44;94446.77;;;10.04;81.31
64211;BME280;50528;48.514;14.394;2023-05-03T02:06:18;94445.95;;;10.04;81.33
64211;BME280;50528;48.514;14.394;2023-05-03T02:06:51;94446.38;;;10.05;81.32
64211;BME280;50528;48.514;14.394;2023-05-03T02:07:26;94448.09;;;10.06;81.36
64211;BME280;50528;48.514;14.394;2023-05-03T02:08:00;94445.61;;;10.05;81.33
64211;BME280;50528;48.514;14.394;2023-05-03T02:08:33;94445.04;;;10.07;81.33
64211;BME280;50528;48.514;14.394;2023-05-03T02:09:06;94445.84;;;10.07;81.30
64211;BME280;50528;48.514;14.394;2023-05-03T02:09:40;94445.95;;;10.08;81.31
64211;BME280;50528;48.514;14.394;2023-05-03T02:10:13;94450.25;;;10.07;81.29
64211;BME280;50528;48.514;14.394;2023-05-03T02:10:48;94447.31;;;10.07;81.31
64211;BME280;50528;48.514;14.394;2023-05-03T02:11:21;94443.16;;;10.04;81.27
64211;BME280;50528;48.514;14.394;2023-05-03T02:11:54;94450.84;;;10.08;81.26
64211;BME280;50528;48.514;14.394;2023-05-03T02:12:28;94446.86;;;10.06;81.31
64211;BME280;50528;48.514;14.394;2023-05-03T02:13:01;94447.48;;;10.08;81.34
64211;BME280;50528;48.514;14.394;2023-05-03T02:13:36;94447.55;;;10.10;81.25
64211;BME280;50528;48.514;14.394;2023-05-03T02:14:10;94449.35;;;10.11;81.26
64211;BME280;50528;48.514;14.394;2023-05-03T02:14:44;94449.13;;;10.10;81.08
64211;BME280;50528;48.514;14.394;2023-05-03T02:15:17;94450.64;;;10.10;81.23
64211;BME280;50528;48.514;14.394;2023-05-03T02:15:52;94451.91;;;10.15;81.04
64211;BME280;50528;48.514;14.394;2023-05-03T02:16:25;94451.10;;;10.10;81.01
64211;BME280;50528;48.514;14.394;2023-05-03T02:16:59;94454.88;;;10.08;81.17
64211;BME280;50528;48.514;14.394;2023-05-03T02:17:39;94454.45;;;10.06;81.13
64211;BME280;50528;48.514;14.394;2023-05-03T02:18:13;94453.73;;;10.05;81.23
64211;BME280;50528;48.514;14.394;2023-05-03T02:18:48;94457.11;;;10.03;81.21
64211;BME280;50528;48.514;14.394;2023-05-03T02:19:21;94454.76;;;10.04;81.17
64211;BME280;50528;48.514;14.394;2023-05-03T02:19:54;94455.59;;;10.06;81.23
64211;BME280;50528;48.514;14.394;2023-05-03T02:20:28;94456.32;;;10.05;81.19
64211;BME280;50528;48.514;14.394;2023-05-03T02:21:04;94454.95;;;10.05;81.11
64211;BME280;50528;48.514;14.394;2023-05-03T02:21:38;94456.55;;;10.06;81.18
64211;BME280;50528;48.514;14.394;2023-05-03T02:22:11;94458.50;;;10.05;81.25
64211;BME280;50528;48.514;14.394;2023-05-03T02:22:45;94451.79;;;10.07;81.21
64211;BME280;50528;48.514;14.394;2023-05-03T02:23:18;94454.23;;;10.06;81.11
64211;BME280;50528;48.514;14.394;2023-05-03T02:23:51;94456.13;;;10.04;81.24
64211;BME280;50528;48.514;14.394;2023-05-03T02:24:26;94454.00;;;10.03;81.25
64211;BME280;50528;48.514;14.394;2023-05-03T02:25:01;94454.80;;;10.02;81.44
64211;BME280;50528;48.514;14.394;2023-05-03T02:25:35;94453.26;;;10.00;81.34
64211;BME280;50528;48.514;14.394;2023-05-03T02:26:08;94455.40;;;10.00;81.32
64211;BME280;50528;48.514;14.394;2023-05-03T02:26:41;94452.84;;;9.98;81.37
64211;BME280;50528;48.514;14.394;2023-05-03T02:27:18;94449.79;;;10.00;81.39
64211;BME280;50528;48.514;14.394;2023-05-03T02:27:51;94446.20;;;9.99;81.35
64211;BME280;50528;48.514;14.394;2023-05-03T02:28:25;94451.90;;;9.99;81.40
64211;BME280;50528;48.514;14.394;2023-05-03T02:28:58;94448.45;;;9.97;81.59
64211;BME280;50528;48.514;14.394;2023-05-03T02:29:32;94446.45;;;9.99;81.45
64211;BME280;50528;48.514;14.394;2023-05-03T02:30:06;94447.02;;;9.97;81.48
64211;BME280;50528;48.514;14.394;2023-05-03T02:30:42;94451.30;;;9.95;81.59
64211;BME280;50528;48.514;14.394;2023-05-03T02:31:16;94451.77;;;9.95;81.60
64211;BME280;50528;48.514;14.394;2023-05-03T02:31:49;94447.42;;;9.96;81.71
64211;BME280;50528;48.514;14.394;2023-05-03T02:32:23;94444.77;;;9.95;81.62
64211;BME280;50528;48.514;14.394;2023-05-03T02:32:57;94451.14;;;9.94;81.64
64211;BME280;50528;48.514;14.394;2023-05-03T02:33:30;94450.40;;;9.95;81.76
64211;BME280;50528;48.514;14.394;2023-05-03T02:34:04;94450.55;;;9.95;81.61
64211;BME280;50528;48.514;14.394;2023-05-03T02:34:37;94448.52;;;9.93;81.73
64211;BME280;50528;48.514;14.394;2023-05-03T02:35:11;94448.55;;;9.94;81.71
64211;BME280;50528;48.514;14.394;2023-05-03T02:35:45;94447.66;;;9.94;81.66
64211;BME280;50528;48.514;14.394;2023-05-03T02:36:18;94449.02;;;9.95;81.66
64211;BME280;50528;48.514;14.394;2023-05-03T02:36:52;94448.61;;;9.92;81.71
64211;BME280;50528;48.514;14.394;2023-05-03T02:37:25;94453.09;;;9.93;81.73
64211;BME280;50528;48.514;14.394;2023-05-03T02:37:59;94451.02;;;9.94;81.75
64211;BME280;50528;48.514;14.394;2023-05-03T02:38:32;94450.30;;;9.93;81.57
64211;BME280;50528;48.514;14.394;2023-05-03T02:39:05;94446.39;;;9.92;81.61
64211;BME280;50528;48.514;14.394;2023-05-03T02:39:39;94449.93;;;9.96;81.70
64211;BME280;50528;48.514;14.394;2023-05-03T02:40:13;94448.95;;;9.96;81.54
64211;BME280;50528;48.514;14.394;2023-05-03T02:40:47;94447.99;;;9.93;81.47
64211;BME280;50528;48.514;14.394;2023-05-03T02:41:20;94452.99;;;9.98;81.56
64211;BME280;50528;48.514;14.394;2023-05-03T02:41:53;94450.95;;;10.00;81.28
64211;BME280;50528;48.514;14.394;2023-05-03T02:42:27;94451.03;;;9.93;81.34
64211;BME280;50528;48.514;14.394;2023-05-03T02:43:00;94448.41;;;9.92;81.52
64211;BME280;50528;48.514;14.394;2023-05-03T02:43:34;94451.80;;;9.90;81.54
64211;BME280;50528;48.514;14.394;2023-05-03T02:44:08;94450.59;;;9.90;81.66
64211;BME280;50528;48.514;14.394;2023-05-03T02:44:41;94448.16;;;9.90;81.65
64211;BME280;50528;48.514;14.394;2023-05-03T02:45:14;94452.85;;;9.90;81.60
64211;BME280;50528;48.514;14.394;2023-05-03T02:45:48;94453.36;;;9.89;81.64
64211;BME280;50528;48.514;14.394;2023-05-03T02:46:21;94456.09;;;9.88;81.59
64211;BME280;50528;48.514;14.394;2023-05-03T02:46:55;94453.52;;;9.89;81.64
64211;BME280;50528;48.514;14.394;2023-05-03T02:47:29;94454.73;;;9.89;81.67
64211;BME280;50528;48.514;14.394;2023-05-03T02:48:03;94453.32;;;9.90;81.73
64211;BME280;50528;48.514;14.394;2023-05-03T02:48:36;94450.23;;;9.88;81.62
64211;BME280;50528;48.514;14.394;2023-05-03T02:49:10;94457.16;;;9.88;81.50
64211;BME280;50528;48.514;14.394;2023-05-03T02:49:43;94450.33;;;9.87;81.76
64211;BME280;50528;48.514;14.394;2023-05-03T02:50:17;94454.84;;;9.89;81.85
64211;BME280;50528;48.514;14.394;2023-05-03T02:50:50;94454.17;;;9.91;81.68
64211;BME280;50528;48.514;14.394;2023-05-03T02:51:24;94453.13;;;9.88;81.73
64211;BME280;50528;48.514;14.394;2023-05-03T02:51:57;94454.20;;;9.87;81.76
64211;BME280;50528;48.514;14.394;2023-05-03T02:52:31;94454.67;;;9.87;81.77
64211;BME280;50528;48.514;14.394;2023-05-03T02:53:04;94455.89;;;9.87;81.77
64211;BME280;50528;48.514;14.394;2023-05-03T02:53:38;94454.79;;;9.85;81.70
64211;BME280;50528;48.514;14.394;2023-05-03T02:54:11;94455.98;;;9.86;81.71
64211;BME280;50528;48.514;14.394;2023-05-03T02:54:45;94456.13;;;9.88;81.82
64211;BME280;50528;48.514;14.394;2023-05-03T02:55:19;94456.96;;;9.88;81.79
64211;BME280;50528;48.514;14.394;2023-05-03T02:55:53;94456.56;;;9.90;81.77
64211;BME280;50528;48.514;14.394;2023-05-03T02:56:26;94455.59;;;9.90;81.79
64211;BME280;50528;48.514;14.394;2023-05-03T02:57:00;94456.15;;;9.90;81.62
64211;BME280;50528;48.514;14.394;2023-05-03T02:57:34;94455.34;;;9.88;81.66
64211;BME280;50528;48.514;14.394;2023-05-03T02:58:08;94456.88;;;9.89;81.59
64211;BME280;50528;48.514;14.394;2023-05-03T02:58:42;94453.84;;;9.87;81.74
64211;BME280;50528;48.514;14.394;2023-05-03T02:59:15;94456.46;;;9.87;81.79
64211;BME280;50528;48.514;14.394;2023-05-03T02:59:49;94457.00;;;9.90;81.65
64211;BME280;50528;48.514;14.394;2023-05-03T03:00:22;94455.95;;;9.90;81.59
64211;BME280;50528;48.514;14.394;2023-05-03T03:00:55;94456.05;;;9.87;81.44
64211;BME280;50528;48.514;14.394;2023-05-03T03:01:32;94460.80;;;9.85;81.61
64211;BME280;50528;48.514;14.394;2023-05-03T03:02:06;94458.29;;;9.84;81.51
64211;BME280;50528;48.514;14.394;2023-05-03T03:02:40;94455.44;;;9.84;81.61
64211;BME280;50528;48.514;14.394;2023-05-03T03:03:13;94458.85;;;9.81;81.61
64211;BME280;50528;48.514;14.394;2023-05-03T03:03:47;94459.47;;;9.81;81.53
64211;BME280;50528;48.514;14.394;2023-05-03T03:04:21;94460.69;;;9.79;81.56
64211;BME280;50528;48.514;14.394;2023-05-03T03:04:54;94458.60;;;9.78;81.66
64211;BME280;50528;48.514;14.394;2023-05-03T03:05:28;94455.18;;;9.77;81.59
64211;BME280;50528;48.514;14.394;2023-05-03T03:06:01;94456.52;;;9.81;81.68
64211;BME280;50528;48.514;14.394;2023-05-03T03:06:35;94456.77;;;9.78;81.55
64211;BME280;50528;48.514;14.394;2023-05-03T03:07:08;94457.80;;;9.76;81.55